Time;durP1;ratioP1;P1;durP2;ratioP2;P2;SDS_P1;SDS_P2;PMS_P1;PMS_P2;Temp;Humidity;BMP_temperature;BMP_pressure;BME280_temperature;BME280_humidity;BME280_pressure;Samples;Min_cycle;Max_cycle;Signal;HPM_P1;HPM_P2
2022/06/06 00:02:23;;;;;;;;;;;;;;;-142.75;100.00;76853.75;5012952;28;19940;-69
2022/06/06 00:04:48;;;;;;;;;;;;;;;-142.75;100.00;76859.66;4995147;28;20387;-69
2022/06/06 00:07:13;;;;;;;;;;;;;;;-142.75;100.00;76865.56;5012854;28;20010;-69
2022/06/06 00:09:38;;;;;;;;;;;;;;;-142.75;100.00;76865.56;5012574;28;19922;-70
2022/06/06 00:12:05;;;;;;;;;;;;;;;-142.75;100.00;76859.66;5012795;28;20387;-69
2022/06/06 00:14:31;;;;;;;;;;;;;;;-142.75;100.00;76855.72;5012318;28;19925;-68
2022/06/06 00:16:56;;;;;;;;;;;;;;;-142.75;100.00;76857.69;5012656;28;19921;-70
2022/06/06 00:19:22;;;;;;;;;;;;;;;-142.75;100.00;76857.69;4994842;28;19917;-69
2022/06/06 00:21:48;;;;;;;;;;;;;;;-142.75;100.00;76849.81;5012162;28;19917;-70
2022/06/06 00:24:13;;;;;;;;;;;;;;;-142.75;100.00;76853.75;5012711;28;20315;-70
2022/06/06 00:26:39;;;;;;;;;;;;;;;-142.75;100.00;76849.81;5012562;28;19918;-70
2022/06/06 00:29:05;;;;;;;;;;;;;;;-142.75;100.00;76853.75;5012270;28;21647;-69
2022/06/06 00:36:59;;;;;;;;;;;;;;;-142.75;100.00;76855.72;5018808;28;20000;-68
2022/06/06 00:39:24;;;;;;;;;;;;;;;-142.75;100.00;76853.75;5031747;28;20362;-69
2022/06/06 00:41:51;;;;;;;;;;;;;;;-142.75;100.00;76853.75;5031963;28;20327;-69
2022/06/06 00:44:20;;;;;;;;;;;;;;;-142.75;100.00;76849.81;5031764;28;19925;-70
2022/06/06 00:46:47;;;;;;;;;;;;;;;-142.75;100.00;76845.88;5031789;28;19921;-70
2022/06/06 00:49:22;;;;;;;;;;;;;;;-142.75;100.00;76845.88;5031537;28;19940;-71
2022/06/06 00:51:48;;;;;;;;;;;;;;;-142.75;100.00;76839.97;5031840;28;19924;-71
2022/06/06 00:54:13;;;;;;;;;;;;;;;-142.75;100.00;76836.03;5031871;28;19921;-72
2022/06/06 00:56:45;;;;;;;;;;;;;;;-142.75;100.00;76830.13;5031225;28;19963;-69
2022/06/06 00:59:15;;;;;;;;;;;;;;;-142.75;100.00;76830.13;5031009;28;20008;-69
2022/06/06 01:01:42;;;;;;;;;;;;;;;-142.75;100.00;76830.13;5031504;28;19917;-69
2022/06/06 01:04:08;;;;;;;;;;;;;;;-142.75;100.00;76820.28;5013248;28;20383;-68
2022/06/06 01:06:35;;;;;;;;;;;;;;;-142.75;100.00;76830.13;5031773;28;19963;-70
2022/06/06 01:09:01;;;;;;;;;;;;;;;-142.75;100.00;76824.22;5031092;28;20383;-70
2022/06/06 01:11:26;;;;;;;;;;;;;;;-142.75;100.00;76822.25;5013527;28;19927;-68
2022/06/06 01:13:53;;;;;;;;;;;;;;;-142.75;100.00;76826.19;5031237;28;20284;-69
2022/06/06 01:16:37;;;;;;;;;;;;;;;-142.75;100.00;76834.06;5031290;28;19917;-69
2022/06/06 01:19:02;;;;;;;;;;;;;;;-142.75;100.00;76830.13;5030967;28;20126;-70
2022/06/06 01:21:34;;;;;;;;;;;;;;;-142.75;100.00;76826.19;5013231;28;20004;-69
2022/06/06 01:24:18;;;;;;;;;;;;;;;-142.75;100.00;76816.34;5030943;28;20074;-69
2022/06/06 01:26:43;;;;;;;;;;;;;;;-142.75;100.00;76814.38;5031074;28;19917;-70
2022/06/06 01:29:11;;;;;;;;;;;;;;;-142.75;100.00;76820.28;5030043;28;19944;-68
2022/06/06 01:31:43;;;;;;;;;;;;;;;-142.75;100.00;76810.44;5031101;28;21994;-69
2022/06/06 01:34:09;;;;;;;;;;;;;;;-142.75;100.00;76802.56;5030868;28;19917;-69
2022/06/06 01:36:36;;;;;;;;;;;;;;;-142.75;100.00;76796.69;5013405;28;19925;-69
2022/06/06 01:39:03;;;;;;;;;;;;;;;-142.75;100.00;76788.81;5030445;28;20032;-69
2022/06/06 01:41:35;;;;;;;;;;;;;;;-142.75;100.00;76792.75;5013032;28;19935;-70
2022/06/06 01:44:05;;;;;;;;;;;;;;;-142.75;100.00;76794.69;5030565;28;19925;-69
2022/06/06 01:46:33;;;;;;;;;;;;;;;-142.75;100.00;76792.75;5030727;28;20307;-69
2022/06/06 01:48:59;;;;;;;;;;;;;;;-142.75;100.00;76788.81;5028643;28;19917;-70
2022/06/06 01:51:29;;;;;;;;;;;;;;;-142.75;100.00;76794.69;5010992;28;20559;-69
2022/06/06 01:53:55;;;;;;;;;;;;;;;-142.75;100.00;76786.84;5010797;28;19949;-69
2022/06/06 01:56:22;;;;;;;;;;;;;;;-142.75;100.00;76782.91;5011232;28;19967;-70
2022/06/06 01:58:47;;;;;;;;;;;;;;;-142.75;100.00;76780.94;5010567;28;20009;-71
2022/06/06 02:01:13;;;;;;;;;;;;;;;-142.75;100.00;76784.88;5010638;28;20395;-68
2022/06/06 02:03:38;;;;;;;;;;;;;;;-142.75;100.00;76777.00;5010481;28;20391;-69
2022/06/06 02:06:04;;;;;;;;;;;;;;;-142.75;100.00;76771.09;5049436;23;19925;-68
2022/06/06 02:08:31;;;;;;;;;;;;;;;-142.75;100.00;76775.03;5027816;28;20673;-68
2022/06/06 02:10:56;;;;;;;;;;;;;;;-142.75;100.00;76778.97;5048554;28;20393;-68
2022/06/06 02:13:21;;;;;;;;;;;;;;;-142.75;100.00;76773.06;5050143;28;19924;-68
2022/06/06 02:15:47;;;;;;;;;;;;;;;-142.75;100.00;76771.09;5050033;28;19963;-69
2022/06/06 02:18:12;;;;;;;;;;;;;;;-142.75;100.00;76778.97;5049652;28;19960;-66
2022/06/06 02:20:38;;;;;;;;;;;;;;;-142.75;100.00;76782.91;5050007;28;19962;-68
2022/06/06 02:23:04;;;;;;;;;;;;;;;-142.75;100.00;76777.00;5048587;28;19920;-68
2022/06/06 02:25:32;;;;;;;;;;;;;;;-142.75;100.00;76775.03;5049504;28;21452;-67
2022/06/06 02:27:57;;;;;;;;;;;;;;;-142.75;100.00;76775.03;5049660;28;19971;-68
2022/06/06 02:30:24;;;;;;;;;;;;;;;-142.75;100.00;76769.13;5050004;28;20289;-68
2022/06/06 02:32:49;;;;;;;;;;;;;;;-142.75;100.00;76763.22;5049736;28;20401;-66
2022/06/06 02:35:17;;;;;;;;;;;;;;;-142.75;100.00;76759.28;5049978;28;19955;-68
2022/06/06 02:37:44;;;;;;;;;;;;;;;-142.75;100.00;76761.25;5049746;28;19943;-67
2022/06/06 02:40:10;;;;;;;;;;;;;;;-142.75;100.00;76765.19;5049740;28;19924;-68
2022/06/06 02:42:36;;;;;;;;;;;;;;;-142.75;100.00;76759.28;5049704;28;20393;-68
2022/06/06 02:45:02;;;;;;;;;;;;;;;-142.75;100.00;76755.34;5049619;28;19939;-69
2022/06/06 02:47:28;;;;;;;;;;;;;;;-142.75;100.00;76759.28;5049847;28;20286;-68
2022/06/06 02:49:53;;;;;;;;;;;;;;;-142.75;100.00;76759.28;5049546;28;19917;-68
2022/06/06 02:52:18;;;;;;;;;;;;;;;-142.75;100.00;76755.34;5049671;28;19924;-68
2022/06/06 02:54:43;;;;;;;;;;;;;;;-142.75;100.00;76755.34;5049994;28;19925;-68
2022/06/06 02:57:08;;;;;;;;;;;;;;;-142.75;100.00;76745.50;5050032;28;19916;-68
2022/06/06 02:59:34;;;;;;;;;;;;;;;-142.75;100.00;76737.63;5048122;28;20299;-69
2022/06/06 03:02:00;;;;;;;;;;;;;;;-142.75;100.00;76735.66;5049681;28;19944;-68
2022/06/06 03:04:25;;;;;;;;;;;;;;;-142.75;100.00;76731.72;5049125;28;19924;-67
2022/06/06 03:06:56;;;;;;;;;;;;;;;-142.75;100.00;76735.66;5049508;28;19917;-69
2022/06/06 03:09:24;;;;;;;;;;;;;;;-142.75;100.00;76745.50;5049057;28;19917;-66
2022/06/06 03:12:04;;;;;;;;;;;;;;;-142.75;100.00;76743.53;5049457;28;19917;-68
2022/06/06 03:14:48;;;;;;;;;;;;;;;-142.75;100.00;76743.53;5049417;28;19923;-69
2022/06/06 03:23:09;;;;;;;;;;;;;;;-142.75;100.00;76739.59;5053063;28;20044;-69
2022/06/06 03:25:53;;;;;;;;;;;;;;;-142.75;100.00;76747.47;5053912;28;19927;-68
2022/06/06 03:28:18;;;;;;;;;;;;;;;-142.75;100.00;76751.41;5052933;28;19917;-68
2022/06/06 03:30:58;;;;;;;;;;;;;;;-142.75;100.00;76741.56;5053203;28;20003;-68
2022/06/06 03:33:32;;;;;;;;;;;;;;;-142.75;100.00;76735.66;5053140;28;19917;-68
2022/06/06 03:36:01;;;;;;;;;;;;;;;-142.75;100.00;76735.66;5052981;28;19923;-68
2022/06/06 03:38:26;;;;;;;;;;;;;;;-142.75;100.00;76739.59;5052866;28;19916;-68
2022/06/06 03:41:04;;;;;;;;;;;;;;;-142.75;100.00;76741.56;5051731;28;20390;-68
2022/06/06 03:43:29;;;;;;;;;;;;;;;-142.75;100.00;76747.47;5052845;28;19964;-68
2022/06/06 03:45:58;;;;;;;;;;;;;;;-142.75;100.00;76755.34;5052669;28;19957;-67
2022/06/06 03:48:41;;;;;;;;;;;;;;;-142.75;100.00;76763.22;5052492;28;19951;-68
2022/06/06 03:51:11;;;;;;;;;;;;;;;-142.75;100.00;76765.19;5052832;28;19916;-68
2022/06/06 03:53:47;;;;;;;;;;;;;;;-142.75;100.00;76765.19;5052751;28;20006;-68
2022/06/06 03:56:27;;;;;;;;;;;;;;;-142.75;100.00;76767.16;5052240;28;20264;-69
2022/06/06 03:58:53;;;;;;;;;;;;;;;-142.75;100.00;76767.16;5052317;28;19921;-69
2022/06/06 04:01:20;;;;;;;;;;;;;;;-142.75;100.00;76767.16;5052609;28;20078;-69
2022/06/06 04:03:47;;;;;;;;;;;;;;;-142.75;100.00;76771.09;5052479;28;20298;-67
2022/06/06 04:06:13;;;;;;;;;;;;;;;-142.75;100.00;76763.22;5051059;28;19925;-69
2022/06/06 04:08:39;;;;;;;;;;;;;;;-142.75;100.00;76763.22;5052193;28;20317;-68
2022/06/06 04:11:23;;;;;;;;;;;;;;;-142.75;100.00;76767.16;5052239;28;19917;-68
2022/06/06 04:13:59;;;;;;;;;;;;;;;-142.75;100.00;76769.13;5051077;28;19917;-68
2022/06/06 04:16:41;;;;;;;;;;;;;;;-142.75;100.00;76773.06;5052366;28;19999;-68
2022/06/06 04:19:18;;;;;;;;;;;;;;;-142.75;100.00;76778.97;5052105;28;19917;-68
2022/06/06 04:22:02;;;;;;;;;;;;;;;-142.75;100.00;76777.00;5052215;28;20015;-69
2022/06/06 04:24:37;;;;;;;;;;;;;;;-142.75;100.00;76775.03;5051950;28;19928;-68
2022/06/06 04:27:21;;;;;;;;;;;;;;;-142.75;100.00;76784.88;5052835;28;19917;-68
2022/06/06 04:29:56;;;;;;;;;;;;;;;-142.75;100.00;76780.94;5051974;28;19920;-68
2022/06/06 04:32:38;;;;;;;;;;;;;;;-142.75;100.00;76786.84;5050920;28;19916;-68
2022/06/06 04:35:20;;;;;;;;;;;;;;;-142.75;100.00;76784.88;5051952;28;20007;-68
2022/06/06 04:38:06;;;;;;;;;;;;;;;-142.75;100.00;76782.91;5051754;28;19924;-68
2022/06/06 04:40:38;;;;;;;;;;;;;;;-142.75;100.00;76773.06;5051884;28;19928;-68
2022/06/06 04:43:08;;;;;;;;;;;;;;;-142.75;100.00;76771.09;5051726;28;20394;-69
2022/06/06 04:45:46;;;;;;;;;;;;;;;-142.75;100.00;76782.91;5051611;28;19963;-68
2022/06/06 04:48:13;;;;;;;;;;;;;;;-142.75;100.00;76778.97;5051592;28;19920;-69
2022/06/06 04:50:40;;;;;;;;;;;;;;;-142.75;100.00;76788.81;5051617;28;19932;-67
2022/06/06 04:53:08;;;;;;;;;;;;;;;-142.75;100.00;76798.66;5051490;28;19917;-69
2022/06/06 04:55:36;;;;;;;;;;;;;;;-142.75;100.00;76796.69;5052290;28;19956;-67
2022/06/06 04:58:03;;;;;;;;;;;;;;;-142.75;100.00;76778.97;5051343;28;19917;-68
2022/06/06 05:00:31;;;;;;;;;;;;;;;-142.75;100.00;76775.03;5051581;28;19991;-69
2022/06/06 05:02:56;;;;;;;;;;;;;;;-142.75;100.00;76767.16;5051381;28;20325;-69
2022/06/06 05:05:26;;;;;;;;;;;;;;;-142.75;100.00;76757.31;5051187;28;19920;-69
2022/06/06 05:08:04;;;;;;;;;;;;;;;-142.75;100.00;76751.41;5051059;28;20362;-68
2022/06/06 05:10:48;;;;;;;;;;;;;;;-142.75;100.00;76731.72;5051376;28;19916;-69
2022/06/06 05:13:19;;;;;;;;;;;;;;;-142.75;100.00;76719.91;5051170;28;19924;-69
2022/06/06 05:15:53;;;;;;;;;;;;;;;-142.75;100.00;76708.09;5051170;28;19971;-69
2022/06/06 05:18:30;;;;;;;;;;;;;;;-142.75;100.00;76692.34;5050882;28;19942;-69
2022/06/06 05:21:12;;;;;;;;;;;;;;;-142.75;100.00;76702.19;5051116;28;19970;-70
2022/06/06 05:23:40;;;;;;;;;;;;;;;-142.75;100.00;76700.22;5050818;28;20301;-69
2022/06/06 05:26:24;;;;;;;;;;;;;;;-142.75;100.00;76712.03;5051742;28;20590;-69
2022/06/06 05:28:58;;;;;;;;;;;;;;;-142.75;100.00;76696.28;5045266;28;19921;-68
2022/06/06 05:31:36;;;;;;;;;;;;;;;-142.75;100.00;76706.13;5029893;28;19921;-68
2022/06/06 05:34:07;;;;;;;;;;;;;;;-142.75;100.00;76708.09;5030966;28;19917;-69
2022/06/06 05:36:40;;;;;;;;;;;;;;;-142.75;100.00;76719.91;5031020;28;19921;-69
2022/06/06 05:39:13;;;;;;;;;;;;;;;-142.75;100.00;76731.72;5030812;28;19917;-68
2022/06/06 05:41:44;;;;;;;;;;;;;;;-142.75;100.00;76745.50;5031049;28;19917;-68
2022/06/06 05:44:18;;;;;;;;;;;;;;;-142.75;100.00;76737.63;5030457;28;20375;-67
2022/06/06 05:47:00;;;;;;;;;;;;;;;-142.75;100.00;76735.66;5030777;28;19917;-68
2022/06/06 05:49:32;;;;;;;;;;;;;;;-142.75;100.00;76749.44;5030231;28;19917;-68
2022/06/06 05:52:27;;;;;;;;;;;;;;;-142.75;100.00;76723.84;5029428;28;19916;-67
2022/06/06 05:54:55;;;;;;;;;;;;;;;-142.75;100.00;76727.78;4993848;28;19922;-68
2022/06/06 05:57:23;;;;;;;;;;;;;;;-142.75;100.00;76702.19;5029703;28;19917;-68
2022/06/06 06:00:06;;;;;;;;;;;;;;;-142.75;100.00;76688.41;5030055;28;19917;-68
2022/06/06 06:02:46;;;;;;;;;;;;;;;-142.75;100.00;76678.56;5030475;28;19917;-67
2022/06/06 06:05:33;;;;;;;;;;;;;;;-142.75;100.00;76684.47;5030222;28;19921;-68
2022/06/06 06:08:17;;;;;;;;;;;;;;;-142.75;100.00;76692.34;5030024;28;19917;-67
2022/06/06 06:10:42;;;;;;;;;;;;;;;-142.75;100.00;76688.41;5030448;28;19917;-67
2022/06/06 06:13:08;;;;;;;;;;;;;;;-142.75;100.00;76706.13;5030776;28;19923;-68
2022/06/06 06:15:43;;;;;;;;;;;;;;;-142.75;100.00;76694.31;5030922;28;20424;-69
2022/06/06 06:18:29;;;;;;;;;;;;;;;-142.75;100.00;76692.34;5030729;28;19999;-68
2022/06/06 06:20:58;;;;;;;;;;;;;;;-142.75;100.00;76674.63;5030874;28;19917;-67
2022/06/06 06:23:26;;;;;;;;;;;;;;;-142.75;100.00;76674.63;5031449;28;19921;-68
2022/06/06 06:25:52;;;;;;;;;;;;;;;-142.75;100.00;76696.28;5031664;28;19956;-67
2022/06/06 06:28:17;;;;;;;;;;;;;;;-142.75;100.00;76680.53;5031252;28;19940;-68
2022/06/06 06:31:02;;;;;;;;;;;;;;;-142.75;100.00;76678.56;5031342;28;20371;-67
2022/06/06 06:33:41;;;;;;;;;;;;;;;-142.75;100.00;76672.66;5031339;28;19917;-68
2022/06/06 06:36:24;;;;;;;;;;;;;;;-142.75;100.00;76666.75;5031141;28;19924;-67
2022/06/06 06:39:05;;;;;;;;;;;;;;;-142.75;100.00;76633.28;5031007;28;19917;-68
2022/06/06 06:41:40;;;;;;;;;;;;;;;-142.75;100.00;76613.59;5031271;28;19944;-68
2022/06/06 06:44:07;;;;;;;;;;;;;;;-142.75;100.00;76611.63;5031171;28;19921;-67
2022/06/06 06:46:39;;;;;;;;;;;;;;;-142.75;100.00;76597.84;5031212;28;19917;-67
2022/06/06 06:49:11;;;;;;;;;;;;;;;-142.75;100.00;76586.03;5030922;28;19975;-68
2022/06/06 06:51:39;;;;;;;;;;;;;;;-142.75;100.00;76603.75;5029818;28;19939;-66
2022/06/06 06:54:21;;;;;;;;;;;;;;;-142.75;100.00;76609.66;5030986;28;19917;-67
2022/06/06 06:56:53;;;;;;;;;;;;;;;-142.75;100.00;76586.03;5034559;28;19948;-68
2022/06/06 06:59:27;;;;;;;;;;;;;;;-142.75;100.00;76558.47;5034955;28;20405;-67
2022/06/06 07:10:57;;;;;;;;;;;;;;;-142.75;100.00;76627.38;5034877;28;19924;-67
2022/06/06 07:13:22;;;;;;;;;;;;;;;-142.75;100.00;76641.16;5034930;28;19968;-68
2022/06/06 07:15:50;;;;;;;;;;;;;;;-142.75;100.00;76597.84;5033622;28;19921;-67
2022/06/06 07:18:18;;;;;;;;;;;;;;;-142.75;100.00;76597.84;5034764;28;20537;-67
2022/06/06 07:20:45;;;;;;;;;;;;;;;-142.75;100.00;76611.63;5033544;28;19970;-67
2022/06/06 07:23:12;;;;;;;;;;;;;;;-142.75;100.00;76633.28;5034699;28;20405;-69
2022/06/06 07:25:38;;;;;;;;;;;;;;;-142.75;100.00;76631.31;5034591;28;19924;-68
2022/06/06 07:28:07;;;;;;;;;;;;;;;-142.75;100.00;76629.34;5034472;28;19917;-68
2022/06/06 07:30:34;;;;;;;;;;;;;;;-142.75;100.00;76588.00;5034256;28;20036;-67
2022/06/06 07:33:02;;;;;;;;;;;;;;;-142.75;100.00;76550.59;5032025;28;19925;-66
2022/06/06 07:35:37;;;;;;;;;;;;;;;-142.75;100.00;76530.91;5036381;28;19959;-66
2022/06/06 07:38:08;;;;;;;;;;;;;;;-142.75;100.00;76548.63;5033292;28;19921;-67
2022/06/06 07:40:52;;;;;;;;;;;;;;;-142.75;100.00;76589.97;5033388;28;19925;-67
2022/06/06 07:43:36;;;;;;;;;;;;;;;-142.75;100.00;76578.16;5033520;28;19982;-67
2022/06/06 07:46:06;;;;;;;;;;;;;;;-142.75;100.00;76550.59;5033415;28;19924;-67
2022/06/06 07:48:40;;;;;;;;;;;;;;;-142.75;100.00;76525.03;5032851;28;19917;-67
2022/06/06 07:51:18;;;;;;;;;;;;;;;-142.75;100.00;76542.72;5033351;28;19924;-66
2022/06/06 07:53:46;;;;;;;;;;;;;;;-142.75;100.00;76511.25;5033242;28;19924;-68
2022/06/06 07:56:14;;;;;;;;;;;;;;;-142.75;100.00;76527.00;5031585;28;20036;-67
2022/06/06 07:58:42;;;;;;;;;;;;;;;-142.75;100.00;76566.34;5032957;28;19924;-66
2022/06/06 08:01:15;;;;;;;;;;;;;;;-142.75;100.00;76556.50;5033093;28;19917;-67
2022/06/06 08:04:05;;;;;;;;;;;;;;;-142.75;100.00;76546.66;5033070;28;19956;-67
2022/06/06 08:06:35;;;;;;;;;;;;;;;-142.75;100.00;76513.22;5032822;28;19921;-68
2022/06/06 08:09:23;;;;;;;;;;;;;;;-142.75;100.00;76491.56;5032714;28;19921;-67
2022/06/06 08:12:00;;;;;;;;;;;;;;;-142.75;100.00;76515.19;5032928;28;19932;-67
2022/06/06 08:14:39;;;;;;;;;;;;;;;-142.75;100.00;76532.88;5032764;28;19917;-67
2022/06/06 08:17:14;;;;;;;;;;;;;;;-142.75;100.00;76554.53;5031245;28;19917;-68
2022/06/06 08:19:57;;;;;;;;;;;;;;;-142.75;100.00;76582.09;5032428;28;19925;-66
2022/06/06 08:22:24;;;;;;;;;;;;;;;-142.75;100.00;76582.09;5032630;28;19947;-68
2022/06/06 08:24:52;;;;;;;;;;;;;;;-142.75;100.00;76572.25;5031374;28;19921;-66
2022/06/06 08:27:18;;;;;;;;;;;;;;;-142.75;100.00;76574.22;5032671;28;20405;-67
2022/06/06 08:29:44;;;;;;;;;;;;;;;-142.75;100.00;76576.19;5030851;28;19955;-67
2022/06/06 08:32:10;;;;;;;;;;;;;;;-142.75;100.00;76576.19;5032401;28;20022;-67
2022/06/06 08:34:37;;;;;;;;;;;;;;;-142.75;100.00;76586.03;5032524;28;19937;-66
2022/06/06 08:37:04;;;;;;;;;;;;;;;-142.75;100.00;76578.16;5031090;28;19922;-67
2022/06/06 08:39:38;;;;;;;;;;;;;;;-142.75;100.00;76513.22;5032144;28;20306;-66
2022/06/06 08:42:13;;;;;;;;;;;;;;;-142.75;100.00;76448.25;5032441;28;20379;-68
2022/06/06 08:45:16;;;;;;;;;;;;;;;-142.75;100.00;76393.13;5032524;28;19928;-68
2022/06/06 08:47:55;;;;;;;;;;;;;;;-142.75;100.00;76385.25;4989906;28;20016;-68
2022/06/06 08:50:44;;;;;;;;;;;;;;;-142.75;100.00;76322.28;4970766;28;19925;-66
2022/06/06 08:53:28;;;;;;;;;;;;;;;-142.75;100.00;76271.09;5018306;28;19921;-66
2022/06/06 08:56:06;;;;;;;;;;;;;;;-142.75;100.00;76278.97;5032020;28;20006;-68
2022/06/06 08:58:51;;;;;;;;;;;;;;;-142.75;100.00;76298.66;5031764;28;19982;-67
2022/06/06 09:01:32;;;;;;;;;;;;;;;-142.75;100.00;76267.16;5037522;28;19924;-68
2022/06/06 09:04:00;;;;;;;;;;;;;;;-142.75;100.00;76225.81;5051854;28;20375;-68
2022/06/06 09:06:25;;;;;;;;;;;;;;;-142.75;100.00;76227.78;5050428;28;20391;-67
2022/06/06 09:09:10;;;;;;;;;;;;;;;-142.75;100.00;76247.47;5051559;28;19925;-67
2022/06/06 09:11:54;;;;;;;;;;;;;;;-142.75;100.00;76206.13;5051307;28;20012;-69
2022/06/06 09:14:35;;;;;;;;;;;;;;;-142.75;100.00;76200.25;5051531;28;19924;-67
2022/06/06 09:17:16;;;;;;;;;;;;;;;-142.75;100.00;76231.72;5049953;28;19920;-66
2022/06/06 09:20:00;;;;;;;;;;;;;;;-142.75;100.00;76249.44;5050421;28;19920;-67
2022/06/06 09:22:44;;;;;;;;;;;;;;;-142.75;100.00;76271.09;5051370;28;19921;-67
2022/06/06 09:25:13;;;;;;;;;;;;;;;-142.75;100.00;76300.63;5050983;28;19967;-66
2022/06/06 09:27:39;;;;;;;;;;;;;;;-142.75;100.00;76355.72;5051181;28;19956;-68
2022/06/06 09:30:06;;;;;;;;;;;;;;;-142.75;100.00;76379.34;5051133;28;19917;-68
2022/06/06 09:32:46;;;;;;;;;;;;;;;-142.75;100.00;76399.03;5051021;28;19916;-67
2022/06/06 09:35:20;;;;;;;;;;;;;;;-142.75;100.00;76416.75;5051110;28;20283;-68
2022/06/06 09:37:59;;;;;;;;;;;;;;;-142.75;100.00;76479.75;5049695;28;20011;-67
2022/06/06 09:40:27;;;;;;;;;;;;;;;-142.75;100.00;76527.00;5050982;28;20023;-68
2022/06/06 09:43:03;;;;;;;;;;;;;;;-142.75;100.00;76542.72;5051146;28;19916;-69
2022/06/06 09:45:29;;;;;;;;;;;;;;;-142.75;100.00;76548.63;5050924;28;19921;-68
2022/06/06 09:48:04;;;;;;;;;;;;;;;-142.75;100.00;76572.25;5050763;28;19917;-65
2022/06/06 09:50:44;;;;;;;;;;;;;;;-142.75;100.00;76568.31;5049676;28;19917;-67
2022/06/06 09:53:27;;;;;;;;;;;;;;;-142.75;100.00;76574.22;5050640;28;19924;-68
2022/06/06 09:59:02;;;;;;;;;;;;;;;-142.75;100.00;76540.75;5049559;28;19923;-67
2022/06/06 10:01:46;;;;;;;;;;;;;;;-142.75;100.00;76515.19;5030832;28;20271;-68
2022/06/06 10:04:20;;;;;;;;;;;;;;;-142.75;100.00;76487.63;5030556;28;20537;-66
2022/06/06 10:06:45;;;;;;;;;;;;;;;-142.75;100.00;76489.59;5030853;28;19924;-68
2022/06/06 10:09:13;;;;;;;;;;;;;;;-142.75;100.00;76495.50;5030514;28;20333;-67
2022/06/06 10:11:56;;;;;;;;;;;;;;;-142.75;100.00;76525.03;5030641;28;20020;-66
2022/06/06 10:14:40;;;;;;;;;;;;;;;-142.75;100.00;76558.47;5030371;28;20402;-67
2022/06/06 10:17:19;;;;;;;;;;;;;;;-142.75;100.00;76548.63;5030417;28;20410;-67
2022/06/06 10:19:50;;;;;;;;;;;;;;;-142.75;100.00;76562.41;5030299;28;19921;-68
2022/06/06 10:22:41;;;;;;;;;;;;;;;-142.75;100.00;76523.06;5030428;28;19960;-67
2022/06/06 10:25:09;;;;;;;;;;;;;;;-142.75;100.00;76458.09;5028160;28;19921;-68
2022/06/06 10:27:45;;;;;;;;;;;;;;;-142.75;100.00;76408.88;5030365;28;20283;-67
2022/06/06 10:30:23;;;;;;;;;;;;;;;-142.75;100.00;76385.25;5029312;28;19924;-67
2022/06/06 10:33:07;;;;;;;;;;;;;;;-142.75;100.00;76397.06;5030307;28;20349;-66
2022/06/06 10:35:52;;;;;;;;;;;;;;;-142.75;100.00;76393.13;5029019;28;19925;-66
2022/06/06 10:38:36;;;;;;;;;;;;;;;-142.75;100.00;76446.28;5008680;28;19917;-67
2022/06/06 10:41:13;;;;;;;;;;;;;;;-142.75;100.00;76454.16;5030242;28;20605;-65
2022/06/06 10:43:50;;;;;;;;;;;;;;;-142.75;100.00;76493.53;5030256;28;19921;-66
2022/06/06 10:46:17;;;;;;;;;;;;;;;-142.75;100.00;76521.09;5030044;28;19917;-66
2022/06/06 10:48:42;;;;;;;;;;;;;;;-142.75;100.00;76530.91;5029976;28;19921;-66
2022/06/06 10:51:39;;;;;;;;;;;;;;;-142.75;100.00;76503.38;5030258;28;19917;-65
2022/06/06 10:54:15;;;;;;;;;;;;;;;-142.75;100.00;76467.94;5030204;28;19917;-66
2022/06/06 10:56:46;;;;;;;;;;;;;;;-142.75;100.00;76469.91;5030155;28;19964;-68
2022/06/06 10:59:29;;;;;;;;;;;;;;;-142.75;100.00;76479.75;5029706;28;19917;-66
2022/06/06 11:02:05;;;;;;;;;;;;;;;-142.75;100.00;76501.41;5030015;28;19924;-67
2022/06/06 11:04:42;;;;;;;;;;;;;;;-142.75;100.00;76493.53;5030026;28;20191;-68
2022/06/06 11:07:20;;;;;;;;;;;;;;;-142.75;100.00;76515.19;5030078;28;19945;-66
2022/06/06 11:10:00;;;;;;;;;;;;;;;-142.75;100.00;76540.75;5029798;28;20387;-66
2022/06/06 11:12:25;;;;;;;;;;;;;;;-142.75;100.00;76546.66;5029935;28;19917;-66
2022/06/06 11:14:52;;;;;;;;;;;;;;;-142.75;100.00;76560.44;5029802;28;19924;-66
2022/06/06 11:17:18;;;;;;;;;;;;;;;-142.75;100.00;76556.50;5030071;28;19918;-66
2022/06/06 11:19:56;;;;;;;;;;;;;;;-142.75;100.00;76570.28;5029624;28;19924;-65
2022/06/06 11:22:27;;;;;;;;;;;;;;;-142.75;100.00;76570.28;5028877;28;19917;-67
2022/06/06 11:24:55;;;;;;;;;;;;;;;-142.75;100.00;76572.25;5032029;28;19921;-66
2022/06/06 11:27:20;;;;;;;;;;;;;;;-142.75;100.00;76597.84;5029950;28;20420;-66
2022/06/06 11:30:09;;;;;;;;;;;;;;;-142.75;100.00;76588.00;5029395;28;19917;-66
2022/06/06 11:32:40;;;;;;;;;;;;;;;-142.75;100.00;76593.91;5020685;28;20355;-67
2022/06/06 11:35:08;;;;;;;;;;;;;;;-142.75;100.00;76595.88;5029666;28;19917;-66
2022/06/06 11:37:52;;;;;;;;;;;;;;;-142.75;100.00;76599.81;5029754;28;19916;-65
2022/06/06 11:40:31;;;;;;;;;;;;;;;-142.75;100.00;76609.66;5029658;28;20318;-66
2022/06/06 11:42:56;;;;;;;;;;;;;;;-142.75;100.00;76637.22;5032996;28;19917;-66
2022/06/06 11:45:21;;;;;;;;;;;;;;;-142.75;100.00;76625.41;5032999;28;19939;-65
2022/06/06 11:47:52;;;;;;;;;;;;;;;-142.75;100.00;76621.47;5031553;28;19917;-68
2022/06/06 11:50:33;;;;;;;;;;;;;;;-142.75;100.00;76613.59;5029641;28;19967;-67
2022/06/06 11:53:21;;;;;;;;;;;;;;;-142.75;100.00;76611.63;5034722;28;19999;-65
2022/06/06 11:55:53;;;;;;;;;;;;;;;-142.75;100.00;76615.56;5027425;28;19971;-67
2022/06/06 11:58:18;;;;;;;;;;;;;;;-142.75;100.00;76607.69;5032935;28;19923;-67
2022/06/06 12:00:55;;;;;;;;;;;;;;;-142.75;100.00;76613.59;5033062;28;20020;-68
2022/06/06 12:03:46;;;;;;;;;;;;;;;-142.75;100.00;76625.41;5033131;28;19963;-67
2022/06/06 12:06:12;;;;;;;;;;;;;;;-142.75;100.00;76637.22;5030649;28;19921;-65
2022/06/06 12:08:40;;;;;;;;;;;;;;;-142.75;100.00;76627.38;5032836;28;19920;-67
2022/06/06 12:11:08;;;;;;;;;;;;;;;-142.75;100.00;76641.16;5033040;28;19986;-66
2022/06/06 12:13:41;;;;;;;;;;;;;;;-142.75;100.00;76645.09;5032856;28;19921;-66
2022/06/06 12:16:24;;;;;;;;;;;;;;;-142.75;100.00;76664.78;5033005;28;19917;-66
2022/06/06 12:19:05;;;;;;;;;;;;;;;-142.75;100.00;76678.56;5032546;28;19916;-66
2022/06/06 12:21:48;;;;;;;;;;;;;;;-142.75;100.00;76694.31;5032851;28;19924;-66
2022/06/06 12:24:28;;;;;;;;;;;;;;;-142.75;100.00;76694.31;5032612;28;20373;-66
2022/06/06 12:27:05;;;;;;;;;;;;;;;-142.75;100.00;76700.22;5031690;28;20276;-67
2022/06/06 12:29:30;;;;;;;;;;;;;;;-142.75;100.00;76692.34;5032078;28;20012;-64
2022/06/06 12:32:02;;;;;;;;;;;;;;;-142.75;100.00;76694.31;5032668;28;20008;-67
2022/06/06 12:34:49;;;;;;;;;;;;;;;-142.75;100.00;76714.00;5032480;28;19962;-66
2022/06/06 12:37:33;;;;;;;;;;;;;;;-142.75;100.00;76723.84;5032599;28;20432;-65
2022/06/06 12:40:04;;;;;;;;;;;;;;;-142.75;100.00;76727.78;5032188;28;19921;-65
2022/06/06 12:42:46;;;;;;;;;;;;;;;-142.75;100.00;76735.66;5032334;28;20064;-65
2022/06/06 12:45:26;;;;;;;;;;;;;;;-142.75;100.00;76741.56;5032120;28;19966;-66
2022/06/06 12:47:57;;;;;;;;;;;;;;;-142.75;100.00;76745.50;5030731;28;19925;-65
2022/06/06 12:50:35;;;;;;;;;;;;;;;-142.75;100.00;76743.53;5032160;28;19964;-64
2022/06/06 12:53:18;;;;;;;;;;;;;;;-142.75;100.00;76739.59;5031200;28;20282;-64
2022/06/06 12:56:08;;;;;;;;;;;;;;;-142.75;100.00;76745.50;5032093;28;19956;-67
2022/06/06 12:58:38;;;;;;;;;;;;;;;-142.75;100.00;76739.59;5031487;28;21224;-66
2022/06/06 13:04:02;;;;;;;;;;;;;;;-142.75;100.00;76777.00;5031974;28;19928;-66
2022/06/06 13:06:33;;;;;;;;;;;;;;;-142.75;100.00;76777.00;5032108;28;19917;-70
2022/06/06 13:09:02;;;;;;;;;;;;;;;-142.75;100.00;76784.88;5031652;28;20015;-64
2022/06/06 13:11:40;;;;;;;;;;;;;;;-142.75;100.00;76775.03;5031791;28;19925;-66
2022/06/06 13:14:24;;;;;;;;;;;;;;;-142.75;100.00;76786.84;5031686;28;19917;-63